sensor_id;sensor_type;location;lat;lon;timestamp;temperature;humidity
12049;DHT22;6085;49.452;8.502;2024-01-16T00:00:04;-1.10;99.90
12049;DHT22;6085;49.452;8.502;2024-01-16T00:04:07;-1.10;99.90
12049;DHT22;6085;49.452;8.502;2024-01-16T00:08:09;-1.10;99.90
12049;DHT22;6085;49.452;8.502;2024-01-16T00:12:10;-1.20;99.90
12049;DHT22;6085;49.452;8.502;2024-01-16T00:16:13;-1.40;99.90
12049;DHT22;6085;49.452;8.502;2024-01-16T00:20:16;-1.60;99.90
12049;DHT22;6085;49.452;8.502;2024-01-16T00:24:18;-2.00;99.90
12049;DHT22;6085;49.452;8.502;2024-01-16T00:28:20;-2.30;99.90
12049;DHT22;6085;49.452;8.502;2024-01-16T00:32:23;-2.60;99.90
12049;DHT22;6085;49.452;8.502;2024-01-16T00:36:25;-2.80;99.90
12049;DHT22;6085;49.452;8.502;2024-01-16T00:40:27;-2.90;99.90
12049;DHT22;6085;49.452;8.502;2024-01-16T00:44:29;-3.00;99.90
12049;DHT22;6085;49.452;8.502;2024-01-16T00:48:32;-3.10;99.90
12049;DHT22;6085;49.452;8.502;2024-01-16T00:52:34;-3.10;99.90
12049;DHT22;6085;49.452;8.502;2024-01-16T00:56:36;-3.10;99.90
12049;DHT22;6085;49.452;8.502;2024-01-16T01:00:38;-2.90;99.90
12049;DHT22;6085;49.452;8.502;2024-01-16T01:04:42;-2.70;99.90
12049;DHT22;6085;49.452;8.502;2024-01-16T01:08:44;-2.70;99.90
12049;DHT22;6085;49.452;8.502;2024-01-16T01:12:46;-2.60;99.90
12049;DHT22;6085;49.452;8.502;2024-01-16T01:16:47;-2.40;99.90
12049;DHT22;6085;49.452;8.502;2024-01-16T01:20:51;-2.20;99.90
12049;DHT22;6085;49.452;8.502;2024-01-16T01:24:53;-2.00;99.90
12049;DHT22;6085;49.452;8.502;2024-01-16T01:28:55;-2.00;99.90
12049;DHT22;6085;49.452;8.502;2024-01-16T01:32:57;-2.10;99.90
12049;DHT22;6085;49.452;8.502;2024-01-16T01:37:00;-2.20;99.90
12049;DHT22;6085;49.452;8.502;2024-01-16T01:41:02;-2.30;99.90
12049;DHT22;6085;49.452;8.502;2024-01-16T01:45:05;-2.50;99.90
12049;DHT22;6085;49.452;8.502;2024-01-16T01:49:07;-2.80;99.90
12049;DHT22;6085;49.452;8.502;2024-01-16T01:53:11;-2.80;99.90
12049;DHT22;6085;49.452;8.502;2024-01-16T01:57:13;-2.80;99.90
12049;DHT22;6085;49.452;8.502;2024-01-16T02:01:17;-2.80;99.90
12049;DHT22;6085;49.452;8.502;2024-01-16T02:05:19;-2.90;99.90
12049;DHT22;6085;49.452;8.502;2024-01-16T02:09:23;-3.20;99.90
12049;DHT22;6085;49.452;8.502;2024-01-16T02:13:25;-3.10;99.90
12049;DHT22;6085;49.452;8.502;2024-01-16T02:17:27;-3.30;99.90
12049;DHT22;6085;49.452;8.502;2024-01-16T02:21:34;-3.40;99.90
12049;DHT22;6085;49.452;8.502;2024-01-16T02:25:38;-3.50;99.90
12049;DHT22;6085;49.452;8.502;2024-01-16T02:29:41;-3.50;99.90
12049;DHT22;6085;49.452;8.502;2024-01-16T02:33:43;-3.50;99.90
12049;DHT22;6085;49.452;8.502;2024-01-16T02:37:45;-3.40;99.90
12049;DHT22;6085;49.452;8.502;2024-01-16T02:41:48;-3.50;99.90
12049;DHT22;6085;49.452;8.502;2024-01-16T02:45:50;-3.60;99.90
12049;DHT22;6085;49.452;8.502;2024-01-16T02:49:52;-3.70;99.90
12049;DHT22;6085;49.452;8.502;2024-01-16T02:53:54;-3.80;99.90
12049;DHT22;6085;49.452;8.502;2024-01-16T02:57:57;-3.90;99.90
12049;DHT22;6085;49.452;8.502;2024-01-16T03:02:00;-4.00;99.90
12049;DHT22;6085;49.452;8.502;2024-01-16T03:06:03;-3.90;99.90
12049;DHT22;6085;49.452;8.502;2024-01-16T03:10:05;-3.70;99.90
12049;DHT22;6085;49.452;8.502;2024-01-16T03:14:08;-3.40;99.90
12049;DHT22;6085;49.452;8.502;2024-01-16T03:18:10;-3.10;99.90
12049;DHT22;6085;49.452;8.502;2024-01-16T03:22:12;-2.80;99.90
12049;DHT22;6085;49.452;8.502;2024-01-16T03:26:14;-2.40;99.90
12049;DHT22;6085;49.452;8.502;2024-01-16T03:30:17;-2.10;99.90
12049;DHT22;6085;49.452;8.502;2024-01-16T03:34:19;-2.00;99.90
12049;DHT22;6085;49.452;8.502;2024-01-16T03:38:21;-2.00;99.90
12049;DHT22;6085;49.452;8.502;2024-01-16T03:42:23;-2.00;99.90
12049;DHT22;6085;49.452;8.502;2024-01-16T03:46:26;-2.10;99.90
12049;DHT22;6085;49.452;8.502;2024-01-16T03:50:28;-2.30;99.90
12049;DHT22;6085;49.452;8.502;2024-01-16T03:54:30;-2.60;99.90
12049;DHT22;6085;49.452;8.502;2024-01-16T03:58:32;-2.90;99.90
12049;DHT22;6085;49.452;8.502;2024-01-16T04:02:37;-3.10;99.90
12049;DHT22;6085;49.452;8.502;2024-01-16T04:06:40;-3.30;99.90
12049;DHT22;6085;49.452;8.502;2024-01-16T04:10:42;-3.50;99.90
12049;DHT22;6085;49.452;8.502;2024-01-16T04:14:44;-3.60;99.90
12049;DHT22;6085;49.452;8.502;2024-01-16T04:18:47;-3.80;99.90
12049;DHT22;6085;49.452;8.502;2024-01-16T04:22:49;-3.90;99.90
12049;DHT22;6085;49.452;8.502;2024-01-16T04:26:50;-4.10;99.90
12049;DHT22;6085;49.452;8.502;2024-01-16T04:30:52;-4.20;99.90
12049;DHT22;6085;49.452;8.502;2024-01-16T04:34:55;-4.30;99.90
12049;DHT22;6085;49.452;8.502;2024-01-16T04:38:57;-4.30;99.90
12049;DHT22;6085;49.452;8.502;2024-01-16T04:42:59;-4.50;99.90
12049;DHT22;6085;49.452;8.502;2024-01-16T04:47:01;-4.50;99.90
12049;DHT22;6085;49.452;8.502;2024-01-16T04:51:05;-4.50;99.90
12049;DHT22;6085;49.452;8.502;2024-01-16T04:55:07;-4.40;99.90
12049;DHT22;6085;49.452;8.502;2024-01-16T04:59:09;-4.40;99.90
12049;DHT22;6085;49.452;8.502;2024-01-16T05:03:11;-4.40;99.90
12049;DHT22;6085;49.452;8.502;2024-01-16T05:07:14;-4.40;99.90
12049;DHT22;6085;49.452;8.502;2024-01-16T05:11:16;-4.50;99.90
12049;DHT22;6085;49.452;8.502;2024-01-16T05:15:18;-4.50;99.90
12049;DHT22;6085;49.452;8.502;2024-01-16T05:19:20;-4.50;99.90
12049;DHT22;6085;49.452;8.502;2024-01-16T05:23:24;-4.60;99.90
12049;DHT22;6085;49.452;8.502;2024-01-16T05:27:26;-4.50;99.90
12049;DHT22;6085;49.452;8.502;2024-01-16T05:31:27;-3.90;99.90
12049;DHT22;6085;49.452;8.502;2024-01-16T05:35:29;-3.40;99.90
12049;DHT22;6085;49.452;8.502;2024-01-16T05:39:33;-3.00;99.90
12049;DHT22;6085;49.452;8.502;2024-01-16T05:43:34;-2.80;99.90
12049;DHT22;6085;49.452;8.502;2024-01-16T05:47:36;-2.70;99.90
12049;DHT22;6085;49.452;8.502;2024-01-16T05:51:38;-2.60;99.90
12049;DHT22;6085;49.452;8.502;2024-01-16T05:55:42;-2.60;99.90
12049;DHT22;6085;49.452;8.502;2024-01-16T05:59:43;-2.60;99.90
12049;DHT22;6085;49.452;8.502;2024-01-16T06:03:45;-2.80;99.90
12049;DHT22;6085;49.452;8.502;2024-01-16T06:07:49;-3.10;99.90
12049;DHT22;6085;49.452;8.502;2024-01-16T06:11:52;-3.40;99.90
12049;DHT22;6085;49.452;8.502;2024-01-16T06:15:54;-3.70;99.90
12049;DHT22;6085;49.452;8.502;2024-01-16T06:19:56;-3.90;99.90
12049;DHT22;6085;49.452;8.502;2024-01-16T06:23:58;-3.90;99.90
12049;DHT22;6085;49.452;8.502;2024-01-16T06:28:01;-4.00;99.90
12049;DHT22;6085;49.452;8.502;2024-01-16T06:32:04;-4.20;99.90
12049;DHT22;6085;49.452;8.502;2024-01-16T06:36:06;-4.20;99.90
12049;DHT22;6085;49.452;8.502;2024-01-16T06:40:10;-4.20;99.90
12049;DHT22;6085;49.452;8.502;2024-01-16T06:44:13;-4.20;99.90
12049;DHT22;6085;49.452;8.502;2024-01-16T06:48:15;-4.10;99.90
12049;DHT22;6085;49.452;8.502;2024-01-16T06:52:17;-4.00;99.90
12049;DHT22;6085;49.452;8.502;2024-01-16T06:56:18;-3.90;99.90
12049;DHT22;6085;49.452;8.502;2024-01-16T07:00:22;-3.90;99.90
12049;DHT22;6085;49.452;8.502;2024-01-16T07:04:26;-3.80;99.90
12049;DHT22;6085;49.452;8.502;2024-01-16T07:08:28;-3.80;99.90
12049;DHT22;6085;49.452;8.502;2024-01-16T07:12:30;-3.80;99.90
12049;DHT22;6085;49.452;8.502;2024-01-16T07:16:33;-3.80;99.90
12049;DHT22;6085;49.452;8.502;2024-01-16T07:20:35;-3.70;99.90
12049;DHT22;6085;49.452;8.502;2024-01-16T07:24:37;-3.70;99.90
12049;DHT22;6085;49.452;8.502;2024-01-16T07:28:38;-3.70;99.90
12049;DHT22;6085;49.452;8.502;2024-01-16T07:32:42;-3.60;99.90
12049;DHT22;6085;49.452;8.502;2024-01-16T07:36:43;-3.60;99.90
12049;DHT22;6085;49.452;8.502;2024-01-16T07:40:45;-3.60;99.90
12049;DHT22;6085;49.452;8.502;2024-01-16T07:44:47;-3.50;99.90
12049;DHT22;6085;49.452;8.502;2024-01-16T07:48:51;-3.40;99.90
12049;DHT22;6085;49.452;8.502;2024-01-16T07:52:53;-3.30;99.90
12049;DHT22;6085;49.452;8.502;2024-01-16T07:56:55;-3.20;99.90
12049;DHT22;6085;49.452;8.502;2024-01-16T08:00:56;-3.00;99.90
12049;DHT22;6085;49.452;8.502;2024-01-16T08:05:00;-2.90;99.90
12049;DHT22;6085;49.452;8.502;2024-01-16T08:09:02;-2.80;99.90
12049;DHT22;6085;49.452;8.502;2024-01-16T08:13:04;-2.70;99.90
12049;DHT22;6085;49.452;8.502;2024-01-16T08:17:05;-2.50;99.90
12049;DHT22;6085;49.452;8.502;2024-01-16T08:21:09;-2.30;99.90
12049;DHT22;6085;49.452;8.502;2024-01-16T08:25:12;-2.10;99.90
12049;DHT22;6085;49.452;8.502;2024-01-16T08:29:14;-1.80;99.90
12049;DHT22;6085;49.452;8.502;2024-01-16T08:33:15;-1.60;99.90
12049;DHT22;6085;49.452;8.502;2024-01-16T08:37:19;-1.50;99.90
12049;DHT22;6085;49.452;8.502;2024-01-16T08:41:20;-1.40;99.90
12049;DHT22;6085;49.452;8.502;2024-01-16T08:45:23;-1.20;99.90
12049;DHT22;6085;49.452;8.502;2024-01-16T08:49:26;-1.10;99.90
12049;DHT22;6085;49.452;8.502;2024-01-16T08:53:29;-0.90;99.90
12049;DHT22;6085;49.452;8.502;2024-01-16T08:57:31;-0.70;99.90
12049;DHT22;6085;49.452;8.502;2024-01-16T09:01:33;-0.60;99.90
12049;DHT22;6085;49.452;8.502;2024-01-16T09:05:35;-0.50;99.90
12049;DHT22;6085;49.452;8.502;2024-01-16T09:09:40;-0.50;99.90
12049;DHT22;6085;49.452;8.502;2024-01-16T09:13:43;-0.50;99.90
12049;DHT22;6085;49.452;8.502;2024-01-16T09:17:45;-0.30;99.90
12049;DHT22;6085;49.452;8.502;2024-01-16T09:21:47;-0.30;99.90
12049;DHT22;6085;49.452;8.502;2024-01-16T09:25:50;-0.20;99.90
12049;DHT22;6085;49.452;8.502;2024-01-16T09:29:52;-0.10;99.90
12049;DHT22;6085;49.452;8.502;2024-01-16T09:33:54;0.00;99.90
12049;DHT22;6085;49.452;8.502;2024-01-16T09:37:55;0.40;99.90
12049;DHT22;6085;49.452;8.502;2024-01-16T09:41:59;0.70;99.90
12049;DHT22;6085;49.452;8.502;2024-01-16T09:46:04;0.90;99.90
12049;DHT22;6085;49.452;8.502;2024-01-16T09:50:07;0.90;99.90
12049;DHT22;6085;49.452;8.502;2024-01-16T09:54:09;0.80;99.90
12049;DHT22;6085;49.452;8.502;2024-01-16T09:58:13;0.80;99.90
12049;DHT22;6085;49.452;8.502;2024-01-16T10:02:15;0.80;99.90
12049;DHT22;6085;49.452;8.502;2024-01-16T10:06:19;0.90;99.90
12049;DHT22;6085;49.452;8.502;2024-01-16T10:10:21;1.00;99.90
12049;DHT22;6085;49.452;8.502;2024-01-16T10:14:25;1.10;99.90
12049;DHT22;6085;49.452;8.502;2024-01-16T10:18:28;1.30;99.90
12049;DHT22;6085;49.452;8.502;2024-01-16T10:22:31;1.30;99.90
12049;DHT22;6085;49.452;8.502;2024-01-16T10:26:33;1.30;99.90
12049;DHT22;6085;49.452;8.502;2024-01-16T10:30:36;1.40;99.90
12049;DHT22;6085;49.452;8.502;2024-01-16T10:34:38;1.50;99.90
12049;DHT22;6085;49.452;8.502;2024-01-16T10:38:41;1.50;99.90
12049;DHT22;6085;49.452;8.502;2024-01-16T10:42:44;1.50;99.90
12049;DHT22;6085;49.452;8.502;2024-01-16T10:46:50;1.40;99.90
12049;DHT22;6085;49.452;8.502;2024-01-16T10:50:52;1.20;99.90
12049;DHT22;6085;49.452;8.502;2024-01-16T10:54:57;1.10;99.90
12049;DHT22;6085;49.452;8.502;2024-01-16T10:59:11;1.30;99.90
12049;DHT22;6085;49.452;8.502;2024-01-16T11:03:20;1.90;99.90
12049;DHT22;6085;49.452;8.502;2024-01-16T11:07:25;2.20;99.90
12049;DHT22;6085;49.452;8.502;2024-01-16T11:11:29;2.40;99.90
12049;DHT22;6085;49.452;8.502;2024-01-16T11:15:33;2.40;99.90
12049;DHT22;6085;49.452;8.502;2024-01-16T11:19:38;2.50;99.90
12049;DHT22;6085;49.452;8.502;2024-01-16T11:23:40;2.60;99.90
12049;DHT22;6085;49.452;8.502;2024-01-16T11:27:43;2.60;99.90
12049;DHT22;6085;49.452;8.502;2024-01-16T11:31:45;2.90;99.90
12049;DHT22;6085;49.452;8.502;2024-01-16T11:35:49;3.00;99.90
12049;DHT22;6085;49.452;8.502;2024-01-16T11:44:39;3.10;99.90
12049;DHT22;6085;49.452;8.502;2024-01-16T11:48:41;3.20;99.90
12049;DHT22;6085;49.452;8.502;2024-01-16T11:52:51;3.30;99.90
12049;DHT22;6085;49.452;8.502;2024-01-16T11:57:12;3.40;99.90
12049;DHT22;6085;49.452;8.502;2024-01-16T12:01:20;3.60;99.90
12049;DHT22;6085;49.452;8.502;2024-01-16T12:05:22;3.70;99.90
12049;DHT22;6085;49.452;8.502;2024-01-16T12:09:27;4.00;99.90
12049;DHT22;6085;49.452;8.502;2024-01-16T12:13:29;4.60;99.90
12049;DHT22;6085;49.452;8.502;2024-01-16T12:17:32;5.70;99.90
12049;DHT22;6085;49.452;8.502;2024-01-16T12:21:34;6.90;99.90
12049;DHT22;6085;49.452;8.502;2024-01-16T12:25:38;7.00;99.90
12049;DHT22;6085;49.452;8.502;2024-01-16T12:29:40;5.40;99.90
12049;DHT22;6085;49.452;8.502;2024-01-16T12:33:42;4.60;99.90
12049;DHT22;6085;49.452;8.502;2024-01-16T12:37:57;4.00;99.90
12049;DHT22;6085;49.452;8.502;2024-01-16T12:42:01;3.50;99.90
12049;DHT22;6085;49.452;8.502;2024-01-16T12:46:03;3.00;99.90
12049;DHT22;6085;49.452;8.502;2024-01-16T12:50:07;2.70;99.90
12049;DHT22;6085;49.452;8.502;2024-01-16T12:54:13;2.70;99.90
12049;DHT22;6085;49.452;8.502;2024-01-16T12:58:17;2.70;99.90
12049;DHT22;6085;49.452;8.502;2024-01-16T13:02:21;2.80;99.90
12049;DHT22;6085;49.452;8.502;2024-01-16T13:06:23;3.10;99.90
12049;DHT22;6085;49.452;8.502;2024-01-16T13:10:25;3.80;99.90
12049;DHT22;6085;49.452;8.502;2024-01-16T13:14:28;4.50;99.90
12049;DHT22;6085;49.452;8.502;2024-01-16T13:18:31;4.70;99.90
12049;DHT22;6085;49.452;8.502;2024-01-16T13:22:33;4.40;99.90
12049;DHT22;6085;49.452;8.502;2024-01-16T13:26:35;4.70;99.90
12049;DHT22;6085;49.452;8.502;2024-01-16T13:30:39;5.00;99.90
12049;DHT22;6085;49.452;8.502;2024-01-16T13:34:41;5.60;99.90
12049;DHT22;6085;49.452;8.502;2024-01-16T13:38:47;5.80;99.90
12049;DHT22;6085;49.452;8.502;2024-01-16T13:42:49;6.20;99.90
12049;DHT22;6085;49.452;8.502;2024-01-16T13:46:52;6.70;99.90
12049;DHT22;6085;49.452;8.502;2024-01-16T13:50:54;6.60;99.90
12049;DHT22;6085;49.452;8.502;2024-01-16T13:54:56;6.10;99.90
12049;DHT22;6085;49.452;8.502;2024-01-16T13:58:58;5.60;99.90
12049;DHT22;6085;49.452;8.502;2024-01-16T14:03:01;5.10;99.90
12049;DHT22;6085;49.452;8.502;2024-01-16T14:07:05;5.00;99.90
12049;DHT22;6085;49.452;8.502;2024-01-16T14:11:08;5.10;99.90
12049;DHT22;6085;49.452;8.502;2024-01-16T14:15:10;4.50;99.90
12049;DHT22;6085;49.452;8.502;2024-01-16T14:19:20;3.70;99.90
12049;DHT22;6085;49.452;8.502;2024-01-16T14:23:22;3.10;99.90
12049;DHT22;6085;49.452;8.502;2024-01-16T14:27:24;2.60;99.90
12049;DHT22;6085;49.452;8.502;2024-01-16T14:31:27;2.30;99.90
12049;DHT22;6085;49.452;8.502;2024-01-16T14:35:30;2.20;99.90
12049;DHT22;6085;49.452;8.502;2024-01-16T14:39:32;2.00;99.90
12049;DHT22;6085;49.452;8.502;2024-01-16T14:43:35;1.80;99.90
12049;DHT22;6085;49.452;8.502;2024-01-16T14:47:37;2.10;99.90
12049;DHT22;6085;49.452;8.502;2024-01-16T14:51:41;2.00;99.90
12049;DHT22;6085;49.452;8.502;2024-01-16T14:55:43;2.10;99.90
12049;DHT22;6085;49.452;8.502;2024-01-16T14:59:44;2.30;99.90
12049;DHT22;6085;49.452;8.502;2024-01-16T15:03:46;2.20;99.90
12049;DHT22;6085;49.452;8.502;2024-01-16T15:07:51;1.90;99.90
12049;DHT22;6085;49.452;8.502;2024-01-16T15:11:53;1.60;99.90
12049;DHT22;6085;49.452;8.502;2024-01-16T15:15:55;1.30;99.90
12049;DHT22;6085;49.452;8.502;2024-01-16T15:19:57;1.10;99.90
12049;DHT22;6085;49.452;8.502;2024-01-16T15:24:00;1.00;99.90
12049;DHT22;6085;49.452;8.502;2024-01-16T15:28:02;0.80;99.90
12049;DHT22;6085;49.452;8.502;2024-01-16T15:32:05;0.70;99.90
12049;DHT22;6085;49.452;8.502;2024-01-16T15:36:07;0.70;99.90
12049;DHT22;6085;49.452;8.502;2024-01-16T15:40:10;0.50;99.90
12049;DHT22;6085;49.452;8.502;2024-01-16T15:44:15;0.50;99.90
12049;DHT22;6085;49.452;8.502;2024-01-16T15:48:17;0.40;99.90
12049;DHT22;6085;49.452;8.502;2024-01-16T15:52:19;0.20;99.90
12049;DHT22;6085;49.452;8.502;2024-01-16T15:56:22;0.10;99.90
12049;DHT22;6085;49.452;8.502;2024-01-16T16:00:25;-0.10;99.90
12049;DHT22;6085;49.452;8.502;2024-01-16T16:04:27;-0.30;99.90
12049;DHT22;6085;49.452;8.502;2024-01-16T16:08:29;-0.40;99.90
12049;DHT22;6085;49.452;8.502;2024-01-16T16:12:32;-0.60;99.90
12049;DHT22;6085;49.452;8.502;2024-01-16T16:16:34;-0.70;99.90
12049;DHT22;6085;49.452;8.502;2024-01-16T16:20:36;-0.70;99.90
12049;DHT22;6085;49.452;8.502;2024-01-16T16:24:38;-0.70;99.90
12049;DHT22;6085;49.452;8.502;2024-01-16T16:28:42;-0.80;99.90
12049;DHT22;6085;49.452;8.502;2024-01-16T16:32:44;-0.80;99.90
12049;DHT22;6085;49.452;8.502;2024-01-16T16:36:45;-0.90;99.90
12049;DHT22;6085;49.452;8.502;2024-01-16T16:40:47;-1.00;99.90
12049;DHT22;6085;49.452;8.502;2024-01-16T16:44:51;-1.20;99.90
12049;DHT22;6085;49.452;8.502;2024-01-16T16:48:53;-1.40;99.90
12049;DHT22;6085;49.452;8.502;2024-01-16T16:52:55;-1.70;99.90
12049;DHT22;6085;49.452;8.502;2024-01-16T16:56:56;-1.90;99.90
12049;DHT22;6085;49.452;8.502;2024-01-16T17:01:00;-2.00;99.90
12049;DHT22;6085;49.452;8.502;2024-01-16T17:05:02;-2.10;99.90
12049;DHT22;6085;49.452;8.502;2024-01-16T17:09:05;-2.30;99.90
12049;DHT22;6085;49.452;8.502;2024-01-16T17:13:07;-2.40;99.90
12049;DHT22;6085;49.452;8.502;2024-01-16T17:17:11;-2.50;99.90
12049;DHT22;6085;49.452;8.502;2024-01-16T17:21:13;-2.50;99.90
12049;DHT22;6085;49.452;8.502;2024-01-16T17:25:15;-2.60;99.90
12049;DHT22;6085;49.452;8.502;2024-01-16T17:29:16;-2.70;99.90
12049;DHT22;6085;49.452;8.502;2024-01-16T17:33:20;-2.80;99.90
12049;DHT22;6085;49.452;8.502;2024-01-16T17:37:22;-3.00;99.90
12049;DHT22;6085;49.452;8.502;2024-01-16T17:41:24;-3.00;99.90
12049;DHT22;6085;49.452;8.502;2024-01-16T17:45:29;-3.00;99.90
12049;DHT22;6085;49.452;8.502;2024-01-16T17:49:32;-3.00;99.90
12049;DHT22;6085;49.452;8.502;2024-01-16T17:53:34;-3.20;99.90
12049;DHT22;6085;49.452;8.502;2024-01-16T17:57:36;-3.40;99.90
12049;DHT22;6085;49.452;8.502;2024-01-16T18:01:38;-3.60;99.90
12049;DHT22;6085;49.452;8.502;2024-01-16T18:05:41;-3.50;99.90
12049;DHT22;6085;49.452;8.502;2024-01-16T18:09:43;-3.50;99.90
12049;DHT22;6085;49.452;8.502;2024-01-16T18:13:45;-3.60;99.90
12049;DHT22;6085;49.452;8.502;2024-01-16T18:17:47;-3.60;99.90
12049;DHT22;6085;49.452;8.502;2024-01-16T18:21:51;-3.70;99.90
12049;DHT22;6085;49.452;8.502;2024-01-16T18:25:53;-3.70;99.90
12049;DHT22;6085;49.452;8.502;2024-01-16T18:29:55;-3.80;99.90
12049;DHT22;6085;49.452;8.502;2024-01-16T18:33:57;-3.80;99.90
12049;DHT22;6085;49.452;8.502;2024-01-16T18:38:01;-3.60;99.90
12049;DHT22;6085;49.452;8.502;2024-01-16T18:42:03;-3.60;99.90
12049;DHT22;6085;49.452;8.502;2024-01-16T18:46:07;-3.70;99.90
12049;DHT22;6085;49.452;8.502;2024-01-16T18:50:09;-3.80;99.90
12049;DHT22;6085;49.452;8.502;2024-01-16T18:54:13;-3.90;99.90
12049;DHT22;6085;49.452;8.502;2024-01-16T18:58:16;-4.00;99.90
12049;DHT22;6085;49.452;8.502;2024-01-16T19:02:18;-4.10;99.90
12049;DHT22;6085;49.452;8.502;2024-01-16T19:06:20;-4.10;99.90
12049;DHT22;6085;49.452;8.502;2024-01-16T19:10:24;-4.20;99.90
12049;DHT22;6085;49.452;8.502;2024-01-16T19:14:27;-4.20;99.90
12049;DHT22;6085;49.452;8.502;2024-01-16T19:18:29;-4.20;99.90
12049;DHT22;6085;49.452;8.502;2024-01-16T19:22:32;-4.30;99.90
12049;DHT22;6085;49.452;8.502;2024-01-16T19:26:35;-4.40;99.90
12049;DHT22;6085;49.452;8.502;2024-01-16T19:30:37;-4.50;99.90
12049;DHT22;6085;49.452;8.502;2024-01-16T19:34:39;-4.60;99.90
12049;DHT22;6085;49.452;8.502;2024-01-16T19:38:41;-4.60;99.90
12049;DHT22;6085;49.452;8.502;2024-01-16T19:42:45;-4.50;99.90
12049;DHT22;6085;49.452;8.502;2024-01-16T19:46:46;-4.50;99.90
12049;DHT22;6085;49.452;8.502;2024-01-16T19:50:50;-4.60;99.90
12049;DHT22;6085;49.452;8.502;2024-01-16T19:54:53;-4.60;99.90
12049;DHT22;6085;49.452;8.502;2024-01-16T19:58:57;-4.60;99.90
12049;DHT22;6085;49.452;8.502;2024-01-16T20:02:59;-4.70;99.90
12049;DHT22;6085;49.452;8.502;2024-01-16T20:07:01;-4.80;99.90
12049;DHT22;6085;49.452;8.502;2024-01-16T20:11:03;-4.90;99.90
12049;DHT22;6085;49.452;8.502;2024-01-16T20:15:09;-5.00;99.90
12049;DHT22;6085;49.452;8.502;2024-01-16T20:19:13;-5.00;99.90
12049;DHT22;6085;49.452;8.502;2024-01-16T20:23:14;-5.10;99.90
12049;DHT22;6085;49.452;8.502;2024-01-16T20:27:16;-5.20;99.90
12049;DHT22;6085;49.452;8.502;2024-01-16T20:31:20;-5.20;99.90
12049;DHT22;6085;49.452;8.502;2024-01-16T20:35:21;-5.30;99.90
12049;DHT22;6085;49.452;8.502;2024-01-16T20:39:24;-5.30;99.90
12049;DHT22;6085;49.452;8.502;2024-01-16T20:43:26;-5.40;99.90
12049;DHT22;6085;49.452;8.502;2024-01-16T20:47:29;-5.40;99.90
12049;DHT22;6085;49.452;8.502;2024-01-16T20:51:31;-5.50;99.90
12049;DHT22;6085;49.452;8.502;2024-01-16T20:55:33;-5.50;99.90
12049;DHT22;6085;49.452;8.502;2024-01-16T20:59:35;-5.50;99.90
12049;DHT22;6085;49.452;8.502;2024-01-16T21:03:38;-5.50;99.90
12049;DHT22;6085;49.452;8.502;2024-01-16T21:07:40;-5.50;99.90
12049;DHT22;6085;49.452;8.502;2024-01-16T21:11:42;-5.50;99.90
12049;DHT22;6085;49.452;8.502;2024-01-16T21:15:44;-5.50;99.90
12049;DHT22;6085;49.452;8.502;2024-01-16T21:19:48;-5.60;99.90
12049;DHT22;6085;49.452;8.502;2024-01-16T21:23:50;-5.50;99.90
12049;DHT22;6085;49.452;8.502;2024-01-16T21:27:52;-5.50;99.90
12049;DHT22;6085;49.452;8.502;2024-01-16T21:31:54;-5.50;99.90
12049;DHT22;6085;49.452;8.502;2024-01-16T21:35:58;-5.60;99.90
12049;DHT22;6085;49.452;8.502;2024-01-16T21:40:00;-5.60;99.90
12049;DHT22;6085;49.452;8.502;2024-01-16T21:44:02;-5.70;99.90
12049;DHT22;6085;49.452;8.502;2024-01-16T21:48:06;-5.70;99.90
12049;DHT22;6085;49.452;8.502;2024-01-16T21:52:09;-5.70;99.90
12049;DHT22;6085;49.452;8.502;2024-01-16T21:56:11;-5.70;99.90
12049;DHT22;6085;49.452;8.502;2024-01-16T22:00:13;-5.70;99.90
12049;DHT22;6085;49.452;8.502;2024-01-16T22:04:15;-5.70;99.90
12049;DHT22;6085;49.452;8.502;2024-01-16T22:08:18;-5.70;99.90
12049;DHT22;6085;49.452;8.502;2024-01-16T22:12:20;-5.70;99.90
12049;DHT22;6085;49.452;8.502;2024-01-16T22:16:23;-5.60;99.90
12049;DHT22;6085;49.452;8.502;2024-01-16T22:20:27;-5.60;99.90
12049;DHT22;6085;49.452;8.502;2024-01-16T22:24:33;-5.60;99.90
12049;DHT22;6085;49.452;8.502;2024-01-16T22:28:35;-5.60;99.90
12049;DHT22;6085;49.452;8.502;2024-01-16T22:32:38;-5.50;99.90
12049;DHT22;6085;49.452;8.502;2024-01-16T22:36:40;-5.50;99.90
12049;DHT22;6085;49.452;8.502;2024-01-16T22:40:43;-5.60;99.90
12049;DHT22;6085;49.452;8.502;2024-01-16T22:44:45;-5.60;99.90
12049;DHT22;6085;49.452;8.502;2024-01-16T22:48:47;-5.60;99.90
12049;DHT22;6085;49.452;8.502;2024-01-16T22:52:48;-5.60;99.90
12049;DHT22;6085;49.452;8.502;2024-01-16T22:56:52;-5.50;99.90
12049;DHT22;6085;49.452;8.502;2024-01-16T23:00:54;-5.60;99.90
12049;DHT22;6085;49.452;8.502;2024-01-16T23:04:56;-5.60;99.90
12049;DHT22;6085;49.452;8.502;2024-01-16T23:08:58;-5.50;99.90
12049;DHT22;6085;49.452;8.502;2024-01-16T23:13:02;-5.50;99.90
12049;DHT22;6085;49.452;8.502;2024-01-16T23:17:04;-5.60;99.90
12049;DHT22;6085;49.452;8.502;2024-01-16T23:21:10;-5.50;99.90
12049;DHT22;6085;49.452;8.502;2024-01-16T23:25:13;-5.50;99.90
12049;DHT22;6085;49.452;8.502;2024-01-16T23:29:17;-5.50;99.90
12049;DHT22;6085;49.452;8.502;2024-01-16T23:33:19;-5.50;99.90
12049;DHT22;6085;49.452;8.502;2024-01-16T23:37:21;-5.50;99.90
12049;DHT22;6085;49.452;8.502;2024-01-16T23:41:24;-5.60;99.90
12049;DHT22;6085;49.452;8.502;2024-01-16T23:45:27;-5.70;99.90
12049;DHT22;6085;49.452;8.502;2024-01-16T23:49:30;-5.60;99.90
12049;DHT22;6085;49.452;8.502;2024-01-16T23:53:35;-5.60;99.90
12049;DHT22;6085;49.452;8.502;2024-01-16T23:57:37;-5.60;99.90
